Time;durP1;ratioP1;P1;durP2;ratioP2;P2;SDS_P1;SDS_P2;PMS_P1;PMS_P2;Temp;Humidity;BMP_temperature;BMP_pressure;BME280_temperature;BME280_humidity;BME280_pressure;Samples;Min_cycle;Max_cycle;Signal;HPM_P1;HPM_P2
2022/07/28 00:00:35;;;;;;;1.47;0.55;;;18.40;47.40;;;;;;940203;152;27354;-77
2022/07/28 00:03:02;;;;;;;0.95;0.60;;;18.40;47.50;;;;;;940773;152;27324;-77
2022/07/28 00:05:29;;;;;;;0.78;0.70;;;18.40;47.50;;;;;;941075;149;27327;-77
2022/07/28 00:07:55;;;;;;;0.88;0.70;;;18.40;47.60;;;;;;940896;151;27344;-77
2022/07/28 00:10:22;;;;;;;2.50;0.85;;;18.40;47.70;;;;;;940298;149;27405;-77
2022/07/28 00:12:48;;;;;;;1.72;0.90;;;18.30;47.70;;;;;;940274;152;27261;-78
2022/07/28 00:15:15;;;;;;;0.95;0.70;;;18.30;47.80;;;;;;940393;149;27358;-78
2022/07/28 00:17:41;;;;;;;0.78;0.70;;;18.30;47.90;;;;;;940172;152;27308;-77
2022/07/28 00:20:08;;;;;;;1.02;0.70;;;18.30;48.00;;;;;;940057;149;27336;-77
2022/07/28 00:22:35;;;;;;;1.43;0.90;;;18.30;48.10;;;;;;939635;151;27420;-78
2022/07/28 00:25:01;;;;;;;1.95;0.70;;;18.20;48.10;;;;;;940522;149;27312;-77
2022/07/28 00:27:28;;;;;;;2.17;0.95;;;18.20;48.20;;;;;;939889;149;27394;-77
2022/07/28 00:29:54;;;;;;;0.88;0.88;;;18.20;48.30;;;;;;940290;149;27304;-77
2022/07/28 00:32:21;;;;;;;1.52;1.02;;;18.20;48.30;;;;;;940530;152;27292;-76
2022/07/28 00:34:49;;;;;;;2.72;0.72;;;18.10;48.30;;;;;;940407;151;27511;-77
2022/07/28 00:37:14;;;;;;;0.82;0.70;;;18.10;48.40;;;;;;940096;152;27318;-78
2022/07/28 00:39:41;;;;;;;1.20;0.65;;;18.10;48.50;;;;;;939876;149;27273;-77
2022/07/28 00:42:08;;;;;;;1.17;0.78;;;18.00;48.50;;;;;;940350;151;27323;-77
2022/07/28 00:44:34;;;;;;;1.20;0.80;;;18.00;48.60;;;;;;940583;150;27328;-77
2022/07/28 00:47:01;;;;;;;0.88;0.70;;;18.00;48.70;;;;;;940792;152;27352;-78
2022/07/28 00:49:27;;;;;;;2.17;0.80;;;18.00;48.80;;;;;;940214;150;27409;-77
2022/07/28 00:51:54;;;;;;;2.15;0.70;;;17.90;48.80;;;;;;940104;152;27375;-78
2022/07/28 00:54:20;;;;;;;0.60;0.47;;;17.90;49.00;;;;;;940589;149;27333;-77
2022/07/28 00:56:47;;;;;;;4.17;0.72;;;17.80;48.90;;;;;;939873;151;27408;-77
2022/07/28 00:59:14;;;;;;;1.02;0.68;;;17.80;49.20;;;;;;940490;149;27344;-77
2022/07/28 01:01:40;;;;;;;0.70;0.50;;;17.80;49.20;;;;;;940600;152;27364;-77
2022/07/28 01:04:07;;;;;;;0.57;0.57;;;17.80;49.20;;;;;;940549;149;27292;-77
2022/07/28 01:06:33;;;;;;;2.33;1.03;;;17.70;49.20;;;;;;940253;149;27443;-77
2022/07/28 01:09:21;;;;;;;1.60;0.80;;;17.70;49.30;;;;;;940585;149;27326;-77
2022/07/28 01:12:08;;;;;;;1.10;0.87;;;17.70;49.40;;;;;;940079;150;27388;-79
2022/07/28 01:14:44;;;;;;;1.23;0.80;;;17.70;49.40;;;;;;940371;152;27597;-79
2022/07/28 01:17:20;;;;;;;1.98;0.82;;;17.60;49.40;;;;;;939620;149;27405;-79
2022/07/28 01:19:58;;;;;;;1.37;0.90;;;17.60;49.60;;;;;;927948;152;27366;-78
2022/07/28 01:22:25;;;;;;;2.07;0.90;;;17.60;49.00;;;;;;940233;151;27270;-79
2022/07/28 01:25:12;;;;;;;1.87;1.27;;;17.60;49.70;;;;;;940317;152;27406;-79
2022/07/28 01:27:44;;;;;;;1.07;0.93;;;17.60;49.90;;;;;;939625;152;27424;-79
2022/07/28 01:30:29;;;;;;;1.17;0.70;;;17.50;49.90;;;;;;940175;151;27424;-79
2022/07/28 01:32:59;;;;;;;1.53;0.90;;;17.50;50.00;;;;;;938679;150;27362;-79
2022/07/28 01:35:25;;;;;;;3.73;1.20;;;17.50;50.10;;;;;;940232;149;27373;-79
2022/07/28 01:37:52;;;;;;;2.30;1.15;;;17.50;50.20;;;;;;939564;149;27386;-78
2022/07/28 01:40:19;;;;;;;0.83;0.67;;;17.40;50.30;;;;;;939735;149;27413;-79
2022/07/28 01:42:45;;;;;;;3.03;0.80;;;17.40;50.40;;;;;;940484;151;27401;-79
2022/07/28 01:45:12;;;;;;;4.00;0.53;;;17.40;50.50;;;;;;940179;149;27292;-79
2022/07/28 01:47:38;;;;;;;2.30;0.80;;;17.40;50.50;;;;;;940025;148;27312;-79
2022/07/28 01:50:05;;;;;;;1.57;1.07;;;17.40;50.60;;;;;;940734;149;27686;-78
2022/07/28 01:52:32;;;;;;;1.90;0.93;;;17.40;50.70;;;;;;939655;150;27383;-79
2022/07/28 01:54:58;;;;;;;1.32;0.80;;;17.50;50.80;;;;;;944230;150;27386;-78
2022/07/28 01:57:25;;;;;;;2.10;0.87;;;17.50;50.80;;;;;;952905;149;27298;-79
2022/07/28 01:59:51;;;;;;;0.80;0.80;;;17.50;50.80;;;;;;953159;148;27303;-79
2022/07/28 02:02:18;;;;;;;1.50;1.13;;;17.50;50.70;;;;;;952413;148;27322;-79
2022/07/28 02:04:46;;;;;;;2.77;1.03;;;17.40;50.70;;;;;;952439;147;27422;-78
2022/07/28 02:07:11;;;;;;;1.23;0.77;;;17.50;50.80;;;;;;952785;149;27342;-79
2022/07/28 02:09:38;;;;;;;1.70;0.70;;;17.50;50.80;;;;;;953414;147;27912;-79
2022/07/28 02:12:04;;;;;;;2.08;0.93;;;17.40;50.80;;;;;;953386;147;27323;-79
2022/07/28 02:14:31;;;;;;;1.33;0.77;;;17.40;50.80;;;;;;953637;148;27295;-78
2022/07/28 02:16:57;;;;;;;0.50;0.50;;;17.50;51.00;;;;;;953223;147;27443;-78
2022/07/28 02:19:24;;;;;;;0.88;0.88;;;17.50;51.00;;;;;;953047;148;27349;-79
2022/07/28 02:21:51;;;;;;;1.02;0.88;;;17.50;51.00;;;;;;953235;147;27438;-79
2022/07/28 02:24:17;;;;;;;2.73;0.90;;;17.50;51.00;;;;;;953039;148;27315;-79
2022/07/28 02:26:44;;;;;;;1.10;0.70;;;17.50;51.00;;;;;;953652;147;27302;-79
2022/07/28 02:29:11;;;;;;;1.77;0.90;;;17.50;51.00;;;;;;952028;149;27285;-79
2022/07/28 02:31:46;;;;;;;1.43;0.63;;;17.50;51.10;;;;;;952984;147;27438;-79
2022/07/28 02:34:12;;;;;;;1.73;0.93;;;17.50;51.00;;;;;;940655;147;27315;-79
2022/07/28 02:36:39;;;;;;;1.30;1.20;;;17.50;51.00;;;;;;952628;150;27963;-79
2022/07/28 02:39:06;;;;;;;0.90;0.70;;;17.50;51.10;;;;;;951709;147;27355;-79
2022/07/28 02:41:32;;;;;;;1.10;0.70;;;17.50;51.20;;;;;;952876;147;27306;-78
2022/07/28 02:44:01;;;;;;;1.13;0.97;;;17.50;51.10;;;;;;952740;147;27337;-77
2022/07/28 02:46:31;;;;;;;1.90;0.73;;;17.50;51.10;;;;;;952591;148;27303;-77
2022/07/28 02:49:01;;;;;;;2.20;0.90;;;17.50;51.30;;;;;;951935;147;27459;-77
2022/07/28 02:51:27;;;;;;;0.93;0.90;;;17.40;51.10;;;;;;952708;149;27416;-77
2022/07/28 02:53:54;;;;;;;2.90;1.00;;;17.40;51.20;;;;;;952847;148;27349;-77
2022/07/28 02:56:20;;;;;;;1.32;0.93;;;17.40;51.20;;;;;;945807;148;27396;-77
2022/07/28 02:58:47;;;;;;;1.20;1.03;;;17.40;51.30;;;;;;939498;150;28473;-77
2022/07/28 03:01:13;;;;;;;1.10;0.80;;;17.40;51.30;;;;;;940400;152;27329;-78
2022/07/28 03:03:40;;;;;;;1.20;0.80;;;17.40;51.40;;;;;;940635;151;27397;-78
2022/07/28 03:06:06;;;;;;;1.33;0.77;;;17.40;51.40;;;;;;940271;152;27308;-77
2022/07/28 03:08:33;;;;;;;1.47;0.80;;;17.30;51.50;;;;;;940420;149;27432;-78
2022/07/28 03:11:06;;;;;;;0.90;0.80;;;17.30;51.50;;;;;;940466;149;27756;-78
2022/07/28 03:13:32;;;;;;;0.80;0.80;;;17.30;51.60;;;;;;939983;151;27289;-78
2022/07/28 03:15:59;;;;;;;1.07;0.90;;;17.30;51.60;;;;;;940539;152;27288;-78
2022/07/28 03:18:27;;;;;;;0.80;0.70;;;17.40;51.70;;;;;;940256;152;27317;-78
2022/07/28 03:20:52;;;;;;;2.20;0.90;;;17.30;51.60;;;;;;939592;152;27343;-79
2022/07/28 03:23:18;;;;;;;0.60;0.60;;;17.30;51.90;;;;;;940706;149;27296;-79
2022/07/28 03:25:48;;;;;;;1.03;1.00;;;17.30;51.60;;;;;;940108;150;27424;-78
2022/07/28 03:28:16;;;;;;;1.70;0.80;;;17.30;51.60;;;;;;940204;149;27348;-78
2022/07/28 03:30:41;;;;;;;0.80;0.80;;;17.30;51.70;;;;;;940129;151;27336;-77
2022/07/28 03:33:07;;;;;;;0.70;0.70;;;17.30;51.70;;;;;;941119;149;27337;-78
2022/07/28 03:35:34;;;;;;;1.30;0.83;;;17.30;51.70;;;;;;940331;152;27300;-79
2022/07/28 03:38:03;;;;;;;0.90;0.90;;;17.30;51.80;;;;;;940039;152;27453;-78
2022/07/28 03:40:30;;;;;;;2.80;1.33;;;17.30;51.80;;;;;;939820;152;27417;-78
2022/07/28 03:42:57;;;;;;;1.07;0.90;;;17.30;51.90;;;;;;939836;149;27277;-77
2022/07/28 03:45:23;;;;;;;0.80;0.80;;;17.30;51.90;;;;;;940005;152;27331;-78
2022/07/28 03:47:50;;;;;;;2.27;1.30;;;17.30;52.00;;;;;;939856;152;27296;-78
2022/07/28 03:50:16;;;;;;;0.87;0.80;;;17.20;51.90;;;;;;939607;151;27711;-78
2022/07/28 03:52:43;;;;;;;1.43;0.80;;;17.20;52.00;;;;;;940103;149;27425;-78
2022/07/28 03:55:09;;;;;;;2.15;0.80;;;17.20;52.00;;;;;;940818;152;27757;-78
2022/07/28 03:57:36;;;;;;;1.57;0.90;;;17.20;52.10;;;;;;951504;149;27382;-79
2022/07/28 04:00:03;;;;;;;2.43;1.03;;;17.10;52.10;;;;;;953349;150;27435;-78
2022/07/28 04:02:29;;;;;;;2.05;0.82;;;17.10;52.20;;;;;;953316;148;27385;-78
2022/07/28 04:04:56;;;;;;;3.80;1.07;;;17.10;52.30;;;;;;953850;147;27258;-79
2022/07/28 04:07:22;;;;;;;1.33;1.20;;;17.10;52.30;;;;;;953428;148;27327;-78
2022/07/28 04:09:49;;;;;;;1.10;0.83;;;17.00;52.30;;;;;;953830;147;27449;-78
2022/07/28 04:12:16;;;;;;;7.00;1.40;;;17.00;52.40;;;;;;952602;150;27327;-79
2022/07/28 04:14:42;;;;;;;0.80;0.80;;;17.00;53.20;;;;;;952374;150;27411;-78
2022/07/28 04:17:09;;;;;;;0.97;0.90;;;17.00;52.60;;;;;;953056;147;27860;-77
2022/07/28 04:19:35;;;;;;;3.63;1.00;;;17.00;52.80;;;;;;953121;148;27279;-78
2022/07/28 04:22:02;;;;;;;1.00;0.80;;;17.00;52.80;;;;;;953232;148;27275;-77
2022/07/28 04:24:29;;;;;;;1.07;0.80;;;17.00;52.90;;;;;;953107;147;27353;-79
2022/07/28 04:26:55;;;;;;;1.87;1.20;;;17.00;52.90;;;;;;953265;147;27299;-78
2022/07/28 04:29:22;;;;;;;2.23;1.10;;;17.10;53.00;;;;;;952556;150;27368;-79
2022/07/28 04:31:48;;;;;;;1.27;0.90;;;17.10;53.00;;;;;;953510;147;27307;-78
2022/07/28 04:34:15;;;;;;;2.73;1.37;;;17.10;53.60;;;;;;953506;148;27322;-78
2022/07/28 04:36:42;;;;;;;4.10;1.20;;;17.20;53.10;;;;;;952620;147;27415;-78
2022/07/28 04:39:09;;;;;;;1.42;0.90;;;17.20;53.00;;;;;;953651;148;27450;-78
2022/07/28 04:41:35;;;;;;;2.27;1.00;;;17.30;53.50;;;;;;953550;147;27379;-78
2022/07/28 04:44:01;;;;;;;1.35;0.90;;;17.40;53.10;;;;;;953342;150;27851;-79
2022/07/28 04:46:28;;;;;;;2.00;1.00;;;17.40;53.10;;;;;;953851;147;27318;-78
2022/07/28 04:48:54;;;;;;;0.90;0.90;;;17.50;53.10;;;;;;953074;148;27333;-78
2022/07/28 04:51:22;;;;;;;0.70;0.70;;;17.50;53.00;;;;;;953467;147;27398;-78
2022/07/28 04:53:48;;;;;;;2.77;1.03;;;17.60;53.00;;;;;;953385;150;27333;-79
2022/07/28 04:56:14;;;;;;;2.70;1.00;;;17.60;53.00;;;;;;953889;147;27325;-79
2022/07/28 04:58:41;;;;;;;1.30;1.10;;;17.70;53.00;;;;;;953314;148;27382;-78
2022/07/28 05:01:07;;;;;;;1.40;1.12;;;17.70;52.90;;;;;;952926;147;27399;-78
2022/07/28 05:03:34;;;;;;;1.52;1.30;;;17.80;52.90;;;;;;953412;150;27322;-79
2022/07/28 05:06:01;;;;;;;2.12;1.62;;;17.80;52.90;;;;;;953688;147;28600;-79
2022/07/28 05:08:27;;;;;;;2.15;1.22;;;17.90;52.90;;;;;;952897;149;27354;-79
2022/07/28 05:10:54;;;;;;;2.60;0.80;;;17.90;52.90;;;;;;953114;148;27375;-79
2022/07/28 05:13:20;;;;;;;1.42;1.02;;;18.00;52.90;;;;;;952992;147;27295;-78
2022/07/28 05:15:47;;;;;;;0.93;0.88;;;18.00;52.80;;;;;;953151;148;27329;-78
2022/07/28 05:18:13;;;;;;;1.40;1.17;;;18.10;52.90;;;;;;952837;147;27358;-79
2022/07/28 05:20:40;;;;;;;1.90;1.12;;;18.10;53.40;;;;;;953572;150;27262;-79
2022/07/28 05:23:07;;;;;;;1.25;1.10;;;18.20;52.80;;;;;;953381;147;27287;-79
2022/07/28 05:25:33;;;;;;;1.77;0.90;;;18.30;52.80;;;;;;953562;149;27374;-79
2022/07/28 05:28:00;;;;;;;1.12;0.90;;;18.30;52.80;;;;;;953361;148;27762;-78
2022/07/28 05:30:26;;;;;;;2.33;1.07;;;18.40;52.80;;;;;;953860;148;27419;-78
2022/07/28 05:32:57;;;;;;;1.52;1.05;;;18.50;52.80;;;;;;952968;147;28381;-80
2022/07/28 05:35:20;;;;;;;1.00;0.90;;;18.50;52.70;;;;;;953081;147;27391;-79
2022/07/28 05:37:46;;;;;;;0.82;0.80;;;18.60;52.60;;;;;;954027;147;27310;-79
2022/07/28 05:40:13;;;;;;;1.60;1.00;;;18.70;52.60;;;;;;953291;147;27313;-79
2022/07/28 05:42:39;;;;;;;2.67;1.10;;;18.70;52.60;;;;;;952796;147;27338;-79
2022/07/28 05:45:07;;;;;;;2.65;0.90;;;18.80;52.40;;;;;;953847;147;28044;-79
2022/07/28 05:47:33;;;;;;;2.47;0.88;;;18.90;52.60;;;;;;953218;150;27862;-79
2022/07/28 05:50:02;;;;;;;6.62;1.42;;;18.90;52.60;;;;;;946562;147;27286;-79
2022/07/28 05:52:28;;;;;;;2.33;1.10;;;19.00;52.50;;;;;;952725;147;27467;-79
2022/07/28 05:54:55;;;;;;;4.85;1.02;;;19.00;52.40;;;;;;953369;147;27774;-80
2022/07/28 05:57:21;;;;;;;1.32;0.90;;;19.20;52.50;;;;;;950273;147;27348;-80
2022/07/28 05:59:48;;;;;;;0.90;0.90;;;19.20;52.40;;;;;;939897;149;27480;-79
2022/07/28 06:02:15;;;;;;;0.68;0.68;;;19.30;52.80;;;;;;939346;150;27393;-79
2022/07/28 06:04:41;;;;;;;1.95;0.80;;;19.40;52.30;;;;;;940690;151;27277;-78
2022/07/28 06:07:08;;;;;;;0.78;0.78;;;19.50;52.50;;;;;;940394;149;27339;-79
2022/07/28 06:09:34;;;;;;;2.42;0.88;;;19.70;52.40;;;;;;939345;152;28481;-80
2022/07/28 06:12:01;;;;;;;1.82;1.17;;;19.90;52.40;;;;;;940266;149;27948;-78
2022/07/28 06:14:27;;;;;;;1.02;0.80;;;20.10;52.40;;;;;;939536;151;27301;-78
2022/07/28 06:16:54;;;;;;;0.72;0.70;;;20.30;52.50;;;;;;940328;149;27335;-78
2022/07/28 06:19:21;;;;;;;2.22;1.10;;;20.60;52.50;;;;;;940456;149;27332;-78
2022/07/28 06:21:47;;;;;;;1.22;0.70;;;21.00;52.60;;;;;;940320;150;27340;-78
2022/07/28 06:24:14;;;;;;;0.95;0.85;;;21.40;52.60;;;;;;940965;149;27373;-79
2022/07/28 06:26:41;;;;;;;2.15;0.93;;;22.00;52.60;;;;;;940829;151;27382;-78
2022/07/28 06:29:07;;;;;;;0.88;0.80;;;22.60;52.30;;;;;;940557;149;27370;-78
2022/07/28 06:31:34;;;;;;;1.50;0.90;;;23.30;52.00;;;;;;940499;152;27427;-78
2022/07/28 06:34:00;;;;;;;0.98;0.85;;;24.10;51.80;;;;;;940401;151;27341;-78
2022/07/28 06:36:27;;;;;;;1.75;0.98;;;24.90;51.20;;;;;;940334;149;27414;-79
2022/07/28 06:38:53;;;;;;;3.08;1.47;;;25.80;50.60;;;;;;940109;152;27305;-78
2022/07/28 06:41:20;;;;;;;0.62;0.60;;;26.70;49.90;;;;;;939732;149;27747;-78
2022/07/28 06:43:47;;;;;;;2.37;1.10;;;27.60;49.30;;;;;;940562;149;27379;-78
2022/07/28 06:46:17;;;;;;;1.77;0.65;;;28.40;47.50;;;;;;940780;149;27328;-79
2022/07/28 06:48:42;;;;;;;1.12;1.00;;;29.10;46.00;;;;;;939703;151;27341;-78
2022/07/28 06:51:06;;;;;;;2.42;1.45;;;29.70;45.00;;;;;;939744;149;27318;-79
2022/07/28 06:53:33;;;;;;;1.52;1.10;;;30.20;44.10;;;;;;940283;152;27322;-78
2022/07/28 06:55:59;;;;;;;2.65;0.80;;;30.70;43.70;;;;;;940304;152;27342;-79
2022/07/28 06:58:26;;;;;;;2.00;1.17;;;31.20;43.40;;;;;;940453;150;27376;-78
2022/07/28 07:00:53;;;;;;;1.42;0.93;;;31.70;43.10;;;;;;940170;149;27334;-79
2022/07/28 07:03:19;;;;;;;2.10;0.98;;;32.30;42.20;;;;;;939230;152;27309;-79
2022/07/28 07:05:46;;;;;;;1.27;0.90;;;32.90;41.60;;;;;;940279;152;26271;-79
2022/07/28 07:08:13;;;;;;;0.82;0.82;;;33.40;41.00;;;;;;939985;149;27342;-79
2022/07/28 07:10:39;;;;;;;1.30;0.85;;;34.00;40.30;;;;;;940759;152;27384;-79
2022/07/28 07:13:06;;;;;;;1.27;0.90;;;34.60;39.90;;;;;;940588;149;27887;-80
2022/07/28 07:15:32;;;;;;;0.62;0.62;;;35.30;39.20;;;;;;940646;149;26369;-79
2022/07/28 07:17:59;;;;;;;2.02;1.20;;;35.90;38.40;;;;;;940238;149;26334;-80
2022/07/28 07:20:25;;;;;;;0.95;0.93;;;36.50;37.70;;;;;;940453;150;26232;-79
2022/07/28 07:22:52;;;;;;;2.00;0.90;;;37.00;37.20;;;;;;941012;149;26241;-79
2022/07/28 07:25:19;;;;;;;2.58;0.80;;;37.60;36.60;;;;;;941777;149;26255;-79
2022/07/28 07:27:45;;;;;;;1.52;1.20;;;38.10;35.90;;;;;;941887;149;27338;-78
2022/07/28 07:30:12;;;;;;;3.25;1.50;;;38.60;35.20;;;;;;940561;147;27317;-77
2022/07/28 07:32:38;;;;;;;0.85;0.85;;;39.00;34.20;;;;;;940118;149;26302;-77
2022/07/28 07:35:05;;;;;;;0.90;0.90;;;39.40;33.50;;;;;;940247;149;27464;-77
2022/07/28 07:37:32;;;;;;;1.07;1.05;;;39.70;33.00;;;;;;940498;151;27833;-77
2022/07/28 07:39:59;;;;;;;2.37;0.90;;;40.00;32.60;;;;;;939665;149;27348;-78
2022/07/28 07:42:25;;;;;;;2.17;1.20;;;40.20;32.10;;;;;;939799;149;27395;-78
2022/07/28 07:44:51;;;;;;;1.77;1.12;;;40.50;32.20;;;;;;940593;152;26216;-78
2022/07/28 07:47:18;;;;;;;1.10;0.60;;;40.70;31.20;;;;;;939610;149;26326;-77
2022/07/28 07:49:45;;;;;;;2.75;1.20;;;40.90;30.90;;;;;;940177;149;26228;-78
2022/07/28 07:52:11;;;;;;;2.30;0.85;;;41.20;30.60;;;;;;940248;149;26298;-78
2022/07/28 07:54:38;;;;;;;1.92;1.00;;;41.40;30.10;;;;;;940009;149;26790;-78
2022/07/28 07:57:04;;;;;;;1.55;0.85;;;41.60;30.00;;;;;;940431;152;26233;-78
2022/07/28 07:59:31;;;;;;;2.75;0.90;;;41.80;29.70;;;;;;946530;147;26330;-77
2022/07/28 08:01:58;;;;;;;0.93;0.80;;;42.00;29.40;;;;;;953304;148;26227;-78
2022/07/28 08:04:24;;;;;;;1.35;1.07;;;42.20;29.30;;;;;;953149;147;26262;-77
2022/07/28 08:06:51;;;;;;;1.30;0.90;;;42.30;29.00;;;;;;953619;147;26250;-78
2022/07/28 08:09:17;;;;;;;2.17;1.27;;;42.60;28.70;;;;;;952759;148;26259;-78
2022/07/28 08:11:44;;;;;;;1.80;0.98;;;42.80;28.60;;;;;;953405;150;26231;-79
2022/07/28 08:14:11;;;;;;;0.75;0.68;;;42.90;28.30;;;;;;953314;150;26174;-78
2022/07/28 08:16:37;;;;;;;1.12;0.75;;;43.10;28.10;;;;;;953381;148;26328;-78
2022/07/28 08:19:04;;;;;;;2.92;0.85;;;43.20;27.90;;;;;;951617;148;26246;-78
2022/07/28 08:21:30;;;;;;;1.37;0.70;;;43.40;27.30;;;;;;952759;150;26241;-77
2022/07/28 08:23:57;;;;;;;1.10;1.00;;;43.50;27.30;;;;;;953264;150;26186;-77
2022/07/28 08:26:23;;;;;;;1.60;0.70;;;43.60;27.30;;;;;;952808;148;26199;-78
2022/07/28 08:28:50;;;;;;;1.17;1.07;;;43.60;26.90;;;;;;952881;149;26207;-78
2022/07/28 08:31:20;;;;;;;2.00;0.90;;;43.70;26.80;;;;;;953210;148;26251;-78
2022/07/28 08:33:43;;;;;;;1.40;1.20;;;43.60;26.70;;;;;;952672;149;26332;-78
2022/07/28 08:36:10;;;;;;;3.10;1.02;;;43.60;26.70;;;;;;951865;150;26252;-78
2022/07/28 08:38:36;;;;;;;2.05;0.85;;;43.70;26.80;;;;;;952979;150;26212;-78
2022/07/28 08:41:03;;;;;;;1.67;1.15;;;43.70;26.80;;;;;;953105;148;27749;-78
2022/07/28 08:43:39;;;;;;;1.17;0.78;;;43.80;26.40;;;;;;952294;148;26230;-77
2022/07/28 08:46:05;;;;;;;2.42;1.20;;;43.90;26.30;;;;;;952671;150;26266;-78
2022/07/28 08:48:35;;;;;;;2.77;0.80;;;43.80;26.00;;;;;;951972;148;26347;-78
2022/07/28 08:51:01;;;;;;;1.60;1.10;;;43.70;25.90;;;;;;951513;150;26184;-78
2022/07/28 08:53:28;;;;;;;1.05;0.90;;;43.40;25.90;;;;;;952364;149;26224;-78
2022/07/28 08:55:55;;;;;;;0.88;0.88;;;43.10;25.70;;;;;;952933;150;26226;-77
2022/07/28 08:58:21;;;;;;;1.05;0.70;;;43.00;25.70;;;;;;952788;149;26246;-77
2022/07/28 09:00:48;;;;;;;1.60;0.80;;;42.70;26.00;;;;;;953057;150;26290;-78
2022/07/28 09:03:14;;;;;;;1.02;0.82;;;42.40;25.70;;;;;;952975;148;26250;-77
2022/07/28 09:05:42;;;;;;;1.30;0.75;;;42.10;25.80;;;;;;952892;148;26609;-77
2022/07/28 09:08:07;;;;;;;1.32;0.70;;;41.90;26.00;;;;;;952926;148;26323;-77
2022/07/28 09:10:34;;;;;;;0.95;0.88;;;41.60;25.90;;;;;;952950;148;26267;-78
2022/07/28 09:13:01;;;;;;;1.52;1.00;;;41.30;26.00;;;;;;952584;150;26672;-78
2022/07/28 09:15:27;;;;;;;1.07;0.85;;;41.10;26.10;;;;;;951728;150;26623;-77
2022/07/28 09:17:54;;;;;;;0.98;0.88;;;40.80;26.20;;;;;;952875;147;26910;-77
2022/07/28 09:20:20;;;;;;;1.27;0.80;;;40.70;26.40;;;;;;953236;147;26235;-77
2022/07/28 09:22:53;;;;;;;4.67;0.98;;;40.70;26.70;;;;;;953490;148;26245;-77
2022/07/28 09:25:21;;;;;;;1.22;0.72;;;40.80;26.80;;;;;;951574;148;26255;-78
2022/07/28 09:27:46;;;;;;;0.78;0.70;;;40.90;26.80;;;;;;952467;147;26219;-78
2022/07/28 09:30:13;;;;;;;2.02;0.80;;;41.20;26.80;;;;;;953028;148;26356;-77
2022/07/28 09:32:39;;;;;;;1.20;0.72;;;41.40;26.50;;;;;;953199;148;26281;-78
2022/07/28 09:35:18;;;;;;;1.52;0.90;;;41.60;26.30;;;;;;953267;148;26344;-77
2022/07/28 09:37:44;;;;;;;1.02;0.85;;;41.80;26.10;;;;;;952595;148;26247;-78
2022/07/28 09:40:11;;;;;;;1.35;0.82;;;41.90;26.20;;;;;;953084;150;26315;-78
2022/07/28 09:42:46;;;;;;;2.10;0.82;;;41.90;26.00;;;;;;952433;148;26243;-78
2022/07/28 09:45:13;;;;;;;2.67;0.93;;;42.00;26.00;;;;;;952437;150;26340;-77
2022/07/28 09:47:40;;;;;;;1.45;1.05;;;42.20;26.00;;;;;;953383;147;26203;-77
2022/07/28 09:50:06;;;;;;;1.37;1.00;;;42.30;25.90;;;;;;953663;147;26250;-78
2022/07/28 09:52:33;;;;;;;1.07;0.90;;;42.50;25.70;;;;;;953171;147;26757;-78
2022/07/28 09:55:08;;;;;;;0.80;0.70;;;42.50;25.60;;;;;;952791;150;26265;-77
2022/07/28 09:57:35;;;;;;;1.47;1.07;;;42.50;25.30;;;;;;952532;147;26271;-78
2022/07/28 10:00:02;;;;;;;2.45;0.90;;;42.50;25.30;;;;;;951165;147;26226;-77
2022/07/28 10:02:30;;;;;;;2.00;1.20;;;42.40;25.30;;;;;;941123;149;26270;-78
2022/07/28 10:04:55;;;;;;;1.17;0.80;;;42.40;25.20;;;;;;938679;149;26244;-78
2022/07/28 10:07:21;;;;;;;1.75;1.10;;;42.20;25.00;;;;;;939406;149;26647;-78
2022/07/28 10:09:57;;;;;;;0.70;0.70;;;41.90;24.90;;;;;;940275;152;26238;-78
2022/07/28 10:12:23;;;;;;;0.88;0.70;;;41.60;24.90;;;;;;939874;149;26546;-77
2022/07/28 10:14:50;;;;;;;1.82;0.90;;;41.20;24.90;;;;;;940636;149;26256;-77
2022/07/28 10:17:27;;;;;;;0.80;0.80;;;40.80;25.00;;;;;;940000;149;26273;-78
2022/07/28 10:19:53;;;;;;;1.65;1.20;;;40.40;25.10;;;;;;940136;149;26318;-77
2022/07/28 10:22:19;;;;;;;1.30;0.85;;;40.00;25.20;;;;;;938540;149;26217;-77
2022/07/28 10:24:46;;;;;;;1.07;0.95;;;39.60;25.30;;;;;;939257;151;26206;-78
2022/07/28 10:27:12;;;;;;;2.20;1.00;;;39.20;25.60;;;;;;939966;149;26314;-77
2022/07/28 10:29:39;;;;;;;1.98;1.12;;;38.80;25.60;;;;;;940163;149;27355;-77
2022/07/28 10:32:05;;;;;;;1.20;1.10;;;38.40;25.70;;;;;;940488;150;26261;-78
2022/07/28 10:34:50;;;;;;;1.17;1.10;;;38.00;25.80;;;;;;940306;149;27294;-78
2022/07/28 10:37:17;;;;;;;2.30;0.98;;;37.70;25.90;;;;;;939708;149;27287;-77
2022/07/28 10:39:43;;;;;;;2.08;1.05;;;37.30;25.90;;;;;;940034;149;27950;-77
2022/07/28 10:42:10;;;;;;;0.78;0.70;;;36.90;26.10;;;;;;939475;149;27328;-77
2022/07/28 10:44:36;;;;;;;1.37;1.20;;;36.50;26.40;;;;;;939871;152;27345;-77
2022/07/28 10:47:03;;;;;;;1.60;1.12;;;36.20;26.60;;;;;;939665;149;27450;-77
2022/07/28 10:49:30;;;;;;;2.10;1.20;;;35.90;26.70;;;;;;939045;149;27447;-77
2022/07/28 10:51:56;;;;;;;1.12;0.95;;;35.70;26.90;;;;;;940026;150;27454;-77
2022/07/28 10:54:23;;;;;;;1.35;1.02;;;35.40;27.00;;;;;;939763;152;27345;-77
2022/07/28 10:56:52;;;;;;;1.90;0.90;;;35.20;27.20;;;;;;939583;151;27419;-78
2022/07/28 10:59:24;;;;;;;2.75;0.95;;;35.10;27.40;;;;;;939403;149;27329;-77
2022/07/28 11:01:51;;;;;;;1.00;0.90;;;34.90;27.40;;;;;;947385;150;27366;-78
2022/07/28 11:04:46;;;;;;;1.92;1.02;;;34.80;27.50;;;;;;952900;148;27249;-77
2022/07/28 11:07:12;;;;;;;1.10;1.00;;;34.70;27.60;;;;;;952274;149;27304;-79
2022/07/28 11:09:39;;;;;;;1.35;1.22;;;34.50;27.70;;;;;;953016;147;27412;-79
2022/07/28 11:12:05;;;;;;;1.27;1.17;;;34.40;27.80;;;;;;951642;147;27355;-80
2022/07/28 11:14:35;;;;;;;3.65;1.00;;;34.30;28.10;;;;;;952153;147;27814;-80
2022/07/28 11:17:04;;;;;;;0.90;0.90;;;34.20;28.20;;;;;;952797;148;27320;-79
2022/07/28 11:19:30;;;;;;;1.90;1.20;;;34.20;28.30;;;;;;953269;147;27288;-78
2022/07/28 11:22:18;;;;;;;1.27;1.00;;;34.20;28.30;;;;;;951099;147;27441;-79
2022/07/28 11:24:57;;;;;;;2.77;1.10;;;34.20;28.40;;;;;;952735;147;27433;-79
2022/07/28 11:27:44;;;;;;;1.30;1.10;;;34.10;28.40;;;;;;952859;150;27364;-79
2022/07/28 11:30:08;;;;;;;2.10;0.98;;;34.10;28.60;;;;;;952359;147;27393;-79
2022/07/28 11:32:50;;;;;;;1.47;0.90;;;34.00;28.50;;;;;;952650;147;27273;-79
2022/07/28 11:35:16;;;;;;;1.10;0.85;;;34.00;28.60;;;;;;953235;147;27315;-78
2022/07/28 11:38:02;;;;;;;1.50;1.20;;;33.90;28.60;;;;;;952395;148;27356;-78
2022/07/28 11:40:31;;;;;;;0.93;0.85;;;33.80;28.70;;;;;;952711;147;27422;-78
2022/07/28 11:43:22;;;;;;;1.25;1.00;;;33.70;28.60;;;;;;953649;147;27339;-79
2022/07/28 11:45:49;;;;;;;1.30;0.95;;;33.60;28.70;;;;;;953424;147;27342;-78
2022/07/28 11:48:16;;;;;;;1.57;0.95;;;33.60;28.80;;;;;;952353;150;27319;-79
2022/07/28 11:50:42;;;;;;;1.12;0.90;;;33.50;28.90;;;;;;953113;147;27296;-79
2022/07/28 11:53:09;;;;;;;1.72;0.95;;;33.40;28.80;;;;;;952425;148;27316;-78
2022/07/28 11:55:35;;;;;;;1.22;1.15;;;33.30;28.90;;;;;;953267;150;27303;-78
2022/07/28 11:58:04;;;;;;;1.12;1.00;;;33.20;29.00;;;;;;952313;147;27460;-79
2022/07/28 12:00:28;;;;;;;1.57;1.02;;;33.10;29.10;;;;;;952532;149;28379;-78
2022/07/28 12:02:56;;;;;;;1.12;1.00;;;33.10;29.20;;;;;;943347;150;27773;-79
2022/07/28 12:05:22;;;;;;;2.05;1.10;;;33.10;29.40;;;;;;940421;149;27405;-79
2022/07/28 12:07:51;;;;;;;1.45;1.17;;;33.10;29.40;;;;;;939933;151;27292;-79
2022/07/28 12:10:26;;;;;;;1.27;0.90;;;33.10;29.40;;;;;;939449;151;27933;-79
2022/07/28 12:12:53;;;;;;;1.25;1.12;;;33.10;29.50;;;;;;940265;149;27435;-79
2022/07/28 12:15:19;;;;;;;2.00;1.02;;;33.20;29.60;;;;;;940505;151;27730;-79
2022/07/28 12:17:46;;;;;;;1.42;0.95;;;33.30;29.60;;;;;;940611;149;27381;-79
2022/07/28 12:20:13;;;;;;;1.27;1.02;;;33.30;29.60;;;;;;940719;149;27298;-78
2022/07/28 12:22:39;;;;;;;1.32;1.10;;;33.30;29.50;;;;;;939007;149;27357;-79
2022/07/28 12:25:06;;;;;;;1.62;0.82;;;33.40;29.60;;;;;;939213;150;27410;-78
2022/07/28 12:27:34;;;;;;;1.37;1.22;;;33.40;29.50;;;;;;940278;152;27278;-79
2022/07/28 12:29:59;;;;;;;1.45;0.93;;;33.40;29.40;;;;;;939709;152;27306;-78
2022/07/28 12:32:31;;;;;;;1.22;1.02;;;33.30;29.50;;;;;;939973;152;27390;-79
2022/07/28 12:34:58;;;;;;;1.52;0.88;;;33.30;29.50;;;;;;940204;151;27779;-78
2022/07/28 12:37:25;;;;;;;1.67;1.07;;;33.20;29.50;;;;;;940257;150;27310;-79
2022/07/28 12:39:51;;;;;;;1.47;0.95;;;33.20;29.70;;;;;;939398;152;27282;-79
2022/07/28 12:42:18;;;;;;;1.02;0.93;;;33.20;29.60;;;;;;939371;151;27466;-79
2022/07/28 12:44:47;;;;;;;1.67;1.27;;;33.10;29.60;;;;;;939600;152;27391;-78
2022/07/28 12:47:11;;;;;;;2.08;1.10;;;33.10;29.60;;;;;;940177;151;27458;-79
2022/07/28 12:49:38;;;;;;;0.98;0.98;;;33.10;29.70;;;;;;940153;152;27482;-78